CYOC

Details ICAO CYOC (YOC)
Name OLD CROW
Region Canada
Timezone America/Whitehorse (UTC-8.0)
Plans Departing 0
Arriving 3
Stats Elevation 824 ft / 251 m (AMSL)
Location 67.569443° -139.839440°
Runways 1
Magnetic Variation 20.340° E
Sunrise Unknown / Unknown
Sunset Unknown / Unknown
Advertisement - Login to hide

Runways

ID Width Length Bearing (true) Bearing (mag) Surface Threshold Offset Overrun Length
03 100 ft / 30 m 4,970 ft / 1,515 m 60.66° 40.32° Gravel 300 ft / 91 m 0 ft / 0 m
21 100 ft / 30 m 4,970 ft / 1,515 m 240.69° 220.35° Gravel 200 ft / 61 m 0 ft / 0 m

Map

Weather


0- 5 10 15 20 25 30 35+ Temperature / ° C

Clouds and Precipitation
Forecast for 2017-12-18 18:00 UTC. Updated an hour ago

Ground ~20,000 ft ~40,000 ft Winds

METAR

CYOC 181633Z 00000KT 20SM VCSH FEW016 BKN046 M23/M25 A3001 RMK ST1SC6 SLP197

TAF

TAF CYOC 181538Z 1816/1902 VRB03KT P6SM FEW015 OVC040 TEMPO 1816/1902 4SM -SN BKN015 OVC040 RMK NXT FCST BY 181800Z

Frequencies

Unicom 122.10 MHz MANDATORY FREQ
Warning: Do not use this data for real-world aviation or navigation. No guarantee of current accuracy is given.